createdAt,value
2018-06-21T00:01:28.908Z,98143.71
2018-06-21T00:04:04.467Z,98140.45
2018-06-21T00:06:40.723Z,98139.86
2018-06-21T00:09:17.082Z,98138.88
2018-06-21T00:11:53.441Z,98137.44
2018-06-21T00:14:29.214Z,98135.13
2018-06-21T00:17:08.843Z,98137.41
2018-06-21T00:19:44.420Z,98136.89
2018-06-21T00:22:20.055Z,98129.48
2018-06-21T00:24:55.598Z,98130.70
2018-06-21T00:27:31.704Z,98127.69
2018-06-21T00:30:07.770Z,98120.61
2018-06-21T00:32:43.544Z,98125.74
2018-06-21T00:35:19.802Z,98128.05
2018-06-21T00:37:55.276Z,98118.30
2018-06-21T00:40:31.726Z,98120.94
2018-06-21T00:43:08.504Z,98115.39
2018-06-21T00:45:45.103Z,98121.25
2018-06-21T00:48:21.626Z,98123.94
2018-06-21T00:50:58.220Z,98122.56
2018-06-21T00:53:33.916Z,98124.20
2018-06-21T00:56:16.763Z,98122.52
2018-06-21T00:58:52.814Z,98119.72
2018-06-21T01:01:29.088Z,98114.49
2018-06-21T01:04:05.297Z,98112.34
2018-06-21T01:06:40.718Z,98122.78
2018-06-21T01:09:16.391Z,98117.16
2018-06-21T01:11:51.668Z,98114.34
2018-06-21T01:14:28.738Z,98114.80
2018-06-21T01:17:04.414Z,98112.63
2018-06-21T01:19:39.866Z,98113.77
2018-06-21T01:22:15.634Z,98113.02
2018-06-21T01:24:51.269Z,98106.87
2018-06-21T01:27:27.708Z,98115.19
2018-06-21T01:30:03.978Z,98103.57
2018-06-21T01:32:39.680Z,98095.06
2018-06-21T01:35:15.434Z,98092.70
2018-06-21T01:37:51.999Z,98091.58
2018-06-21T01:40:28.831Z,98090.48
2018-06-21T01:43:04.912Z,98088.20
2018-06-21T01:45:41.372Z,98083.75
2018-06-21T01:48:17.210Z,98087.75
2018-06-21T01:50:53.414Z,98077.40
2018-06-21T01:53:29.151Z,98078.34
2018-06-21T01:56:06.564Z,98076.74
2018-06-21T01:58:42.952Z,98071.73
2018-06-21T02:01:20.649Z,98070.30
2018-06-21T02:03:58.109Z,98073.83
2018-06-21T02:06:35.290Z,98068.08
2018-06-21T02:09:12.200Z,98060.52
2018-06-21T02:11:49.582Z,98054.14
2018-06-21T02:14:26.629Z,98062.91
2018-06-21T02:17:02.453Z,98061.48
2018-06-21T02:19:38.010Z,98060.16
2018-06-21T02:22:14.972Z,98054.67
2018-06-21T02:24:51.770Z,98058.75
2018-06-21T02:27:28.588Z,98045.27
2018-06-21T02:30:06.814Z,98049.23
2018-06-21T02:32:44.260Z,98044.63
2018-06-21T02:35:21.554Z,98049.04
2018-06-21T02:37:58.197Z,98040.83
2018-06-21T02:40:35.036Z,98038.88
2018-06-21T02:43:11.009Z,98032.66
2018-06-21T02:45:48.044Z,98033.43
2018-06-21T02:48:23.659Z,98029.52
2018-06-21T02:51:00.025Z,98020.77
2018-06-21T02:53:37.752Z,98017.39
2018-06-21T02:56:16.258Z,98025.03
2018-06-21T02:58:53.222Z,98020.79
2018-06-21T03:01:29.241Z,98019.55
2018-06-21T03:04:05.703Z,98018.91
2018-06-21T03:06:43.532Z,98012.48
2018-06-21T03:09:20.069Z,98020.34
2018-06-21T03:11:57.979Z,98026.05
2018-06-21T03:14:35.266Z,98018.52
2018-06-21T03:17:14.552Z,98022.84
2018-06-21T03:19:50.757Z,98015.64
2018-06-21T03:22:27.280Z,98017.10
2018-06-21T03:25:02.701Z,98017.41
2018-06-21T03:27:40.842Z,98015.97
2018-06-21T03:30:18.127Z,98012.62
2018-06-21T03:32:55.392Z,98009.86
2018-06-21T03:35:32.207Z,98012.72
2018-06-21T03:38:09.767Z,98001.21
2018-06-21T03:40:46.133Z,98010.89
2018-06-21T03:43:23.745Z,98008.47
2018-06-21T03:46:00.261Z,98008.36
2018-06-21T03:48:37.624Z,98006.70
2018-06-21T03:51:13.183Z,98003.35
2018-06-21T03:53:49.101Z,98003.44
2018-06-21T03:56:26.285Z,97997.97
2018-06-21T03:59:01.901Z,97994.27
2018-06-21T04:01:38.753Z,97999.88
2018-06-21T04:04:14.325Z,97999.66
2018-06-21T04:06:50.819Z,97998.13
2018-06-21T04:09:26.803Z,97997.42
2018-06-21T04:12:04.179Z,97996.80
2018-06-21T04:14:40.208Z,97998.38
2018-06-21T04:17:16.977Z,97997.72
2018-06-21T04:19:54.051Z,98003.28
2018-06-21T04:22:30.136Z,98006.41
2018-06-21T04:25:05.711Z,97997.99
2018-06-21T04:27:42.925Z,98002.67
2018-06-21T04:30:19.103Z,97998.58
2018-06-21T04:32:56.306Z,97996.55
2018-06-21T04:35:32.740Z,97991.88
2018-06-21T04:38:09.360Z,97986.33
2018-06-21T04:40:47.052Z,97995.12
2018-06-21T04:43:22.588Z,97995.58
2018-06-21T04:45:58.441Z,97991.61
2018-06-21T04:48:35.002Z,97980.39
2018-06-21T04:51:11.139Z,97981.16
2018-06-21T04:53:47.954Z,97972.73
2018-06-21T04:56:24.464Z,97965.91
2018-06-21T04:59:00.564Z,97971.16
2018-06-21T05:01:36.184Z,97963.59
2018-06-21T05:04:12.038Z,97967.05
2018-06-21T05:06:48.058Z,97963.72
2018-06-21T05:09:24.089Z,97960.50
2018-06-21T05:12:00.227Z,97961.31
2018-06-21T05:14:36.198Z,97961.00
2018-06-21T05:17:11.916Z,97954.30
2018-06-21T05:19:47.940Z,97954.70
2018-06-21T05:22:24.200Z,97949.30
2018-06-21T05:24:59.789Z,97951.34
2018-06-21T05:27:36.268Z,97950.48
2018-06-21T05:30:12.482Z,97956.70
2018-06-21T05:32:56.634Z,97957.30
2018-06-21T05:38:20.908Z,97954.38
2018-06-21T05:41:13.700Z,97966.80
2018-06-21T05:44:01.549Z,97954.41
2018-06-21T05:46:37.843Z,97947.03
2018-06-21T05:49:13.568Z,97950.59
2018-06-21T05:51:51.186Z,97953.11
2018-06-21T05:54:26.804Z,97945.99
2018-06-21T05:57:03.406Z,97944.55
2018-06-21T05:59:39.252Z,97943.67
2018-06-21T06:02:16.223Z,97942.46
2018-06-21T06:04:52.759Z,97936.34
2018-06-21T06:07:28.286Z,97932.45
2018-06-21T06:10:04.090Z,97937.05
2018-06-21T06:12:44.900Z,97931.02
2018-06-21T06:15:23.333Z,97932.33
2018-06-21T06:18:00.258Z,97924.11
2018-06-21T06:20:36.058Z,97918.82
2018-06-21T06:23:13.083Z,97913.95
2018-06-21T06:25:49.011Z,97915.91
2018-06-21T06:28:25.443Z,97918.86
2018-06-21T06:31:01.540Z,97909.69
2018-06-21T06:33:36.947Z,97911.72
2018-06-21T06:36:14.072Z,97906.59
2018-06-21T06:38:50.566Z,97909.17
2018-06-21T06:41:26.226Z,97904.44
2018-06-21T06:44:01.706Z,97907.80
2018-06-21T06:46:38.039Z,97900.28
2018-06-21T06:49:13.978Z,97898.19
2018-06-21T06:51:49.250Z,97891.94
2018-06-21T06:54:25.739Z,97897.44
2018-06-21T06:57:16.532Z,97892.22
2018-06-21T06:59:52.136Z,97893.66
2018-06-21T07:02:28.237Z,97888.66
2018-06-21T07:05:07.680Z,97885.52
2018-06-21T07:07:44.308Z,97878.08
2018-06-21T07:10:21.100Z,97876.98
2018-06-21T07:12:57.427Z,97879.36
2018-06-21T07:15:41.760Z,97878.11
2018-06-21T07:18:17.207Z,97866.83
2018-06-21T07:20:53.874Z,97857.89
2018-06-21T07:23:29.822Z,97858.58
2018-06-21T07:26:05.575Z,97850.33
2018-06-21T07:28:41.356Z,97849.55
2018-06-21T07:31:17.450Z,97848.94
2018-06-21T07:33:53.140Z,97854.92
2018-06-21T07:36:31.567Z,97843.66
2018-06-21T07:39:08.894Z,97852.75
2018-06-21T07:41:45.954Z,97859.79
2018-06-21T07:44:24.637Z,97849.45
2018-06-21T07:47:00.794Z,97850.05
2018-06-21T07:49:36.830Z,97851.29
2018-06-21T07:52:12.231Z,97842.55
2018-06-21T07:54:47.955Z,97846.26
2018-06-21T07:57:24.030Z,97841.53
2018-06-21T08:00:00.562Z,97828.72
2018-06-21T08:02:36.097Z,97836.25
2018-06-21T08:05:12.466Z,97822.50
2018-06-21T08:07:49.855Z,97838.30
2018-06-21T08:10:25.908Z,97839.42
2018-06-21T08:13:02.084Z,97830.69
2018-06-21T08:15:38.045Z,97833.12
2018-06-21T08:18:15.553Z,97833.58
2018-06-21T08:20:51.159Z,97833.84
2018-06-21T08:23:28.105Z,97826.43
2018-06-21T08:26:04.565Z,97827.62
2018-06-21T08:28:40.128Z,97824.07
2018-06-21T08:31:15.773Z,97814.11
2018-06-21T08:33:51.788Z,97815.02
2018-06-21T08:36:27.395Z,97816.50
2018-06-21T08:39:05.663Z,97827.41
2018-06-21T08:41:41.317Z,97822.15
2018-06-21T08:44:17.485Z,97824.34
2018-06-21T08:46:54.693Z,97825.08
2018-06-21T08:49:31.742Z,97811.55
2018-06-21T08:52:07.355Z,97819.06
2018-06-21T08:54:44.834Z,97816.13
2018-06-21T08:57:22.141Z,97814.58
2018-06-21T08:59:57.627Z,97816.95
2018-06-21T09:02:34.457Z,97808.99
2018-06-21T09:05:10.363Z,97812.83
2018-06-21T09:07:50.519Z,97817.25
2018-06-21T09:10:27.904Z,97820.57
2018-06-21T09:13:07.974Z,97820.83
2018-06-21T09:15:45.407Z,97815.55
2018-06-21T09:18:22.539Z,97814.98
2018-06-21T09:21:00.096Z,97820.25
2018-06-21T09:23:35.654Z,97822.31
2018-06-21T09:26:12.140Z,97827.38
2018-06-21T09:28:48.769Z,97805.48
2018-06-21T09:31:24.618Z,97831.06
2018-06-21T09:34:00.300Z,97818.03
2018-06-21T09:36:38.457Z,97821.49
2018-06-21T09:39:19.074Z,97817.58
2018-06-21T09:42:01.820Z,97822.44
2018-06-21T09:44:42.381Z,97806.91
2018-06-21T09:47:23.803Z,97840.70
2018-06-21T09:50:01.465Z,97799.72
2018-06-21T09:52:37.123Z,97817.16
2018-06-21T09:55:12.462Z,97818.09
2018-06-21T09:57:48.073Z,97803.25
2018-06-21T10:00:29.031Z,97821.08
2018-06-21T10:03:04.673Z,97794.67
2018-06-21T10:05:41.145Z,97828.34
2018-06-21T10:08:18.424Z,97843.92
2018-06-21T10:10:53.955Z,97832.98
2018-06-21T10:13:29.697Z,97806.13
2018-06-21T10:16:05.411Z,97821.81
2018-06-21T10:18:41.269Z,97811.70
2018-06-21T10:21:17.740Z,97811.39
2018-06-21T10:23:55.714Z,97807.25
2018-06-21T10:26:31.521Z,97794.53
2018-06-21T10:29:07.026Z,97836.58
2018-06-21T10:31:44.226Z,97839.38
2018-06-21T10:34:20.844Z,97832.03
2018-06-21T10:36:57.792Z,97837.08
2018-06-21T10:39:33.950Z,97858.08
2018-06-21T10:42:10.836Z,97840.16
2018-06-21T10:44:46.268Z,97834.44
2018-06-21T10:47:21.609Z,97842.02
2018-06-21T10:49:58.252Z,97828.27
2018-06-21T10:52:33.739Z,97834.19
2018-06-21T10:55:10.083Z,97828.06
2018-06-21T10:57:46.211Z,97807.61
2018-06-21T11:00:21.486Z,97832.14
2018-06-21T11:02:57.106Z,97826.36
2018-06-21T11:05:33.189Z,97838.30
2018-06-21T11:08:08.729Z,97820.69
2018-06-21T11:10:45.703Z,97842.28
2018-06-21T11:13:21.198Z,97844.50
2018-06-21T11:15:57.375Z,97831.37
2018-06-21T11:18:33.022Z,97832.79
2018-06-21T11:21:09.875Z,97831.00
2018-06-21T11:23:45.760Z,97848.06
2018-06-21T11:26:24.196Z,97852.39
2018-06-21T11:28:59.661Z,97844.55
2018-06-21T11:31:35.175Z,97854.63
2018-06-21T11:34:53.887Z,97848.41
2018-06-21T11:37:31.087Z,97842.69
2018-06-21T11:40:07.167Z,97848.22
2018-06-21T11:42:43.317Z,97838.80
2018-06-21T11:45:19.517Z,97850.89
2018-06-21T11:47:55.556Z,97866.06
2018-06-21T11:50:32.968Z,97860.33
2018-06-21T11:53:09.638Z,97860.77
2018-06-21T11:55:45.222Z,97871.19
2018-06-21T11:58:20.789Z,97864.39
2018-06-21T12:00:56.293Z,97863.22
2018-06-21T12:03:33.172Z,97843.09
2018-06-21T12:06:09.159Z,97873.73
2018-06-21T12:08:46.190Z,97871.25
2018-06-21T12:11:23.323Z,97870.31
2018-06-21T12:13:59.250Z,97842.67
2018-06-21T12:16:34.846Z,97851.67
2018-06-21T12:19:11.075Z,97849.95
2018-06-21T12:21:46.652Z,97849.33
2018-06-21T12:24:23.519Z,97852.13
2018-06-21T12:27:04.995Z,97849.22
2018-06-21T12:29:44.044Z,97844.24
2018-06-21T12:32:19.668Z,97855.10
2018-06-21T12:34:55.883Z,97860.19
2018-06-21T12:37:34.096Z,97866.44
2018-06-21T12:40:11.312Z,97845.86
2018-06-21T12:42:47.457Z,97862.17
2018-06-21T12:45:23.131Z,97866.38
2018-06-21T12:47:59.082Z,97856.27
2018-06-21T12:50:34.718Z,97858.86
2018-06-21T12:53:10.492Z,97869.13
2018-06-21T12:55:46.651Z,97862.98
2018-06-21T12:58:22.256Z,97852.20
2018-06-21T13:00:57.677Z,97856.61
2018-06-21T13:03:37.009Z,97864.34
2018-06-21T13:06:13.384Z,97857.19
2018-06-21T13:08:59.771Z,97859.72
2018-06-21T13:12:46.497Z,97845.68
2018-06-21T13:15:22.114Z,97874.95
2018-06-21T13:17:58.661Z,97861.97
2018-06-21T13:20:35.866Z,97881.58
2018-06-21T13:23:11.455Z,97871.78
2018-06-21T13:25:47.506Z,97873.73
2018-06-21T13:28:23.982Z,97875.47
2018-06-21T13:30:59.767Z,97875.89
2018-06-21T13:33:35.355Z,97877.88
2018-06-21T13:36:12.389Z,97872.69
2018-06-21T13:38:47.914Z,97876.64
2018-06-21T13:41:23.958Z,97878.28
2018-06-21T13:44:16.027Z,97880.84
2018-06-21T13:46:52.637Z,97879.84
2018-06-21T13:49:28.182Z,97882.84
2018-06-21T13:52:03.460Z,97895.06
2018-06-21T13:54:38.990Z,97881.17
2018-06-21T13:57:15.280Z,97891.73
2018-06-21T13:59:52.410Z,97886.86
2018-06-21T14:02:29.902Z,97900.52
2018-06-21T14:05:06.442Z,97908.04
2018-06-21T14:07:42.404Z,97895.19
2018-06-21T14:10:24.701Z,97896.97
2018-06-21T14:13:02.467Z,97899.86
2018-06-21T14:15:38.624Z,97884.14
2018-06-21T14:18:15.241Z,97914.81
2018-06-21T14:20:52.205Z,97927.87
2018-06-21T14:23:29.077Z,97908.25
2018-06-21T14:26:05.154Z,97914.16
2018-06-21T14:28:41.857Z,97914.11
2018-06-21T14:31:18.153Z,97908.01
2018-06-21T14:33:54.550Z,97928.75
2018-06-21T14:36:30.484Z,97941.00
2018-06-21T14:39:08.242Z,97924.81
2018-06-21T14:41:45.592Z,97944.80
2018-06-21T14:44:22.382Z,97946.45
2018-06-21T14:46:58.364Z,97957.02
2018-06-21T14:49:35.079Z,97960.09
2018-06-21T14:52:11.614Z,97943.58
2018-06-21T14:54:47.066Z,97947.87
2018-06-21T14:57:27.175Z,97951.97
2018-06-21T15:00:04.054Z,97950.69
2018-06-21T15:02:40.504Z,97950.50
2018-06-21T15:05:16.394Z,97965.80
2018-06-21T15:07:51.808Z,97952.09
2018-06-21T15:10:28.080Z,97971.05
2018-06-21T15:13:04.217Z,97969.19
2018-06-21T15:15:39.841Z,97961.05
2018-06-21T15:18:16.360Z,97948.92
2018-06-21T15:20:51.837Z,97969.41
2018-06-21T15:23:28.078Z,97953.11
2018-06-21T15:26:05.356Z,97957.69
2018-06-21T15:28:43.027Z,97954.00
2018-06-21T15:31:22.607Z,97954.51
2018-06-21T15:34:02.698Z,97951.45
2018-06-21T15:36:40.041Z,97949.71
2018-06-21T15:39:22.484Z,97954.02
2018-06-21T15:41:58.416Z,97963.87
2018-06-21T15:44:35.335Z,97970.47
2018-06-21T15:47:11.034Z,97975.91
2018-06-21T15:49:47.480Z,97976.75
2018-06-21T15:52:24.673Z,97981.95
2018-06-21T15:55:01.026Z,97980.23
2018-06-21T15:57:37.570Z,97977.92
2018-06-21T16:00:18.010Z,97986.66
2018-06-21T16:02:54.047Z,97969.16
2018-06-21T16:05:31.903Z,97981.67
2018-06-21T16:08:10.099Z,97996.75
2018-06-21T16:10:46.725Z,98001.57
2018-06-21T16:13:22.340Z,97990.52
2018-06-21T16:15:59.877Z,98006.02
2018-06-21T16:18:36.000Z,98003.14
2018-06-21T16:21:12.691Z,98003.56
2018-06-21T16:23:48.137Z,98000.24
2018-06-21T16:26:24.381Z,97992.00
2018-06-21T16:29:00.882Z,97984.07
2018-06-21T16:31:37.643Z,97981.27
2018-06-21T16:34:14.597Z,97988.09
2018-06-21T16:36:50.564Z,97981.69
2018-06-21T16:39:26.719Z,97990.95
2018-06-21T16:42:03.167Z,97989.94
2018-06-21T16:44:38.815Z,97984.13
2018-06-21T16:47:14.511Z,97985.70
2018-06-21T16:49:51.137Z,97988.41
2018-06-21T16:52:27.098Z,97984.52
2018-06-21T16:55:04.239Z,97989.16
2018-06-21T16:57:40.466Z,97972.02
2018-06-21T17:00:16.177Z,97982.04
2018-06-21T17:02:53.289Z,97971.72
2018-06-21T17:05:29.786Z,97968.21
2018-06-21T17:08:05.617Z,97981.00
2018-06-21T17:10:41.280Z,97982.90
2018-06-21T17:13:17.934Z,97982.91
2018-06-21T17:15:56.271Z,97995.34
2018-06-21T17:18:32.278Z,97994.50
2018-06-21T17:21:12.324Z,97995.75
2018-06-21T17:23:49.539Z,97993.81
2018-06-21T17:26:27.882Z,97994.03
2018-06-21T17:29:04.983Z,98000.64
2018-06-21T17:31:40.801Z,97990.38
2018-06-21T17:34:17.222Z,97994.38
2018-06-21T17:36:54.111Z,97993.23
2018-06-21T17:39:30.850Z,98005.73
2018-06-21T17:42:07.412Z,98014.89
2018-06-21T17:44:43.286Z,98008.03
2018-06-21T17:47:19.680Z,98003.48
2018-06-21T17:49:55.235Z,98020.20
2018-06-21T17:52:31.326Z,98027.95
2018-06-21T17:55:08.062Z,98022.35
2018-06-21T17:57:43.836Z,98039.89
2018-06-21T18:00:19.659Z,98029.96
2018-06-21T18:02:57.114Z,98055.18
2018-06-21T18:05:32.779Z,98042.27
2018-06-21T18:08:08.963Z,98053.88
2018-06-21T18:10:45.742Z,98058.36
2018-06-21T18:13:21.764Z,98070.20
2018-06-21T18:15:57.467Z,98071.55
2018-06-21T18:18:34.403Z,98071.95
2018-06-21T18:21:10.577Z,98066.19
2018-06-21T18:23:46.359Z,98079.82
2018-06-21T18:26:26.371Z,98082.71
2018-06-21T18:29:02.266Z,98087.95
2018-06-21T18:31:38.981Z,98079.89
2018-06-21T18:34:15.062Z,98086.66
2018-06-21T18:36:51.015Z,98099.31
2018-06-21T18:39:28.051Z,98103.06
2018-06-21T18:42:05.250Z,98100.83
2018-06-21T18:44:42.403Z,98105.27
2018-06-21T18:47:18.764Z,98102.16
2018-06-21T18:49:54.314Z,98118.63
2018-06-21T18:52:32.214Z,98115.75
2018-06-21T18:55:08.585Z,98120.64
2018-06-21T18:57:44.295Z,98111.63
2018-06-21T19:00:19.993Z,98125.23
2018-06-21T19:02:55.973Z,98118.14
2018-06-21T19:05:32.968Z,98132.22
2018-06-21T19:08:13.848Z,98130.04
2018-06-21T19:10:54.570Z,98141.36
2018-06-21T19:13:31.266Z,98138.21
2018-06-21T19:16:06.916Z,98153.71
2018-06-21T19:18:42.871Z,98155.12
2018-06-21T19:21:18.506Z,98161.84
2018-06-21T19:23:54.282Z,98172.41
2018-06-21T19:26:30.430Z,98164.70
2018-06-21T19:29:07.107Z,98175.02
2018-06-21T19:31:42.421Z,98177.98
2018-06-21T19:34:18.311Z,98171.75
2018-06-21T19:36:53.938Z,98186.01
2018-06-21T19:39:29.365Z,98199.42
2018-06-21T19:42:04.783Z,98202.64
2018-06-21T19:44:40.616Z,98209.35
2018-06-21T19:47:16.387Z,98219.07
2018-06-21T19:49:51.821Z,98219.27
2018-06-21T19:52:27.211Z,98228.86
2018-06-21T19:55:02.640Z,98233.77
2018-06-21T19:57:38.033Z,98242.99
2018-06-21T20:00:13.516Z,98238.98
2018-06-21T20:02:53.997Z,98241.14
2018-06-21T20:05:29.844Z,98249.34
2018-06-21T20:08:05.271Z,98261.23
2018-06-21T20:10:40.532Z,98261.03
2018-06-21T20:13:15.939Z,98263.67
2018-06-21T20:15:52.664Z,98272.06
2018-06-21T20:18:28.179Z,98282.32
2018-06-21T20:21:03.790Z,98273.19
2018-06-21T20:23:39.197Z,98294.09
2018-06-21T20:26:15.023Z,98297.60
2018-06-21T20:28:50.571Z,98293.06
2018-06-21T20:31:26.698Z,98313.94
2018-06-21T20:34:02.129Z,98320.41
2018-06-21T20:36:37.591Z,98329.06
2018-06-21T20:39:13.337Z,98308.72
2018-06-21T20:41:48.740Z,98330.61
2018-06-21T20:44:24.105Z,98324.46
2018-06-21T20:46:59.634Z,98338.48
2018-06-21T20:49:35.043Z,98336.65
2018-06-21T20:52:14.613Z,98346.20
2018-06-21T20:54:50.000Z,98351.22
2018-06-21T20:57:25.931Z,98353.36
2018-06-21T21:00:01.274Z,98359.68
2018-06-21T21:02:36.911Z,98368.47
2018-06-21T21:05:16.021Z,98373.17
2018-06-21T21:07:51.764Z,98370.25
2018-06-21T21:10:27.755Z,98368.77
2018-06-21T21:13:03.350Z,98381.51
2018-06-21T21:15:38.825Z,98381.21
2018-06-21T21:18:14.131Z,98390.39
2018-06-21T21:20:49.415Z,98395.53
2018-06-21T21:23:24.820Z,98401.41
2018-06-21T21:26:00.272Z,98409.85
2018-06-21T21:28:35.780Z,98408.59
2018-06-21T21:31:11.221Z,98416.14
2018-06-21T21:33:46.888Z,98418.92
2018-06-21T21:36:22.264Z,98421.02
2018-06-21T21:38:58.091Z,98423.14
2018-06-21T21:41:33.475Z,98428.00
2018-06-21T21:44:09.003Z,98433.78
2018-06-21T21:46:44.530Z,98435.82
2018-06-21T21:49:19.875Z,98447.09
2018-06-21T21:51:55.459Z,98448.55
2018-06-21T21:54:31.012Z,98447.66
2018-06-21T21:57:06.572Z,98451.22
2018-06-21T21:59:42.152Z,98457.05
2018-06-21T22:02:18.118Z,98456.47
2018-06-21T22:04:53.668Z,98463.94
2018-06-21T22:07:29.224Z,98466.38
2018-06-21T22:10:04.888Z,98458.45
2018-06-21T22:12:40.460Z,98469.91
2018-06-21T22:15:16.066Z,98470.31
2018-06-21T22:17:52.046Z,98477.81
2018-06-21T22:20:27.592Z,98476.71
2018-06-21T22:23:03.750Z,98472.56
2018-06-21T22:25:39.626Z,98477.41
2018-06-21T22:28:15.836Z,98481.73
2018-06-21T22:30:51.346Z,98484.45
2018-06-21T22:33:27.128Z,98480.45
2018-06-21T22:36:02.884Z,98479.13
2018-06-21T22:38:38.330Z,98479.29
2018-06-21T22:41:14.072Z,98490.46
2018-06-21T22:43:49.933Z,98482.50
2018-06-21T22:46:25.622Z,98488.62
2018-06-21T22:49:01.521Z,98487.62
2018-06-21T22:51:37.365Z,98487.52
2018-06-21T22:54:13.166Z,98492.16
2018-06-21T22:56:48.712Z,98488.33
2018-06-21T22:59:24.548Z,98488.69
2018-06-21T23:02:00.310Z,98497.20
2018-06-21T23:04:35.948Z,98498.23
2018-06-21T23:07:11.504Z,98501.27
2018-06-21T23:09:47.032Z,98504.05
2018-06-21T23:12:22.714Z,98504.80
2018-06-21T23:14:58.484Z,98502.19
2018-06-21T23:17:34.212Z,98503.75
2018-06-21T23:20:09.830Z,98506.95
2018-06-21T23:22:45.384Z,98509.63
2018-06-21T23:25:20.964Z,98514.07
2018-06-21T23:27:56.807Z,98516.27
2018-06-21T23:30:32.684Z,98515.61
2018-06-21T23:33:08.396Z,98524.76
2018-06-21T23:35:44.084Z,98518.84
2018-06-21T23:38:19.596Z,98520.81
2018-06-21T23:40:55.152Z,98525.95
2018-06-21T23:43:31.012Z,98528.71
2018-06-21T23:46:06.761Z,98538.77
2018-06-21T23:48:42.331Z,98537.25
2018-06-21T23:51:18.000Z,98538.04
2018-06-21T23:53:53.530Z,98550.52
2018-06-21T23:56:29.131Z,98544.63
2018-06-21T23:59:04.980Z,98546.46
